Time,TemperatureF,DewpointF,PressureIn,WindDirection,WindDirectionDegrees,WindSpeedMPH,WindSpeedGustMPH,Humidity,HourlyPrecipIn,Conditions,Clouds,dailyrainin,SolarRadiationWatts/m^2,SoftwareType,DateUTC
2013-11-06 00:03:00,63.0,55.0,-100.00,East,88,3.0,8.0,76,0.00,,,0.00,9.000000,,2013-11-06 06:03:00,
2013-11-06 00:13:00,63.0,55.0,-100.00,East,88,3.0,8.0,76,0.00,,,0.00,9.000000,,2013-11-06 06:13:00,
2013-11-06 00:22:00,63.0,55.0,-100.00,East,88,3.0,8.0,76,0.00,,,0.00,9.000000,,2013-11-06 06:22:00,
2013-11-06 00:52:00,62.0,56.0,-100.00,ENE,67,2.0,5.0,80,0.00,,,0.00,8.000000,,2013-11-06 06:52:00,
2013-11-06 01:02:00,62.0,56.0,-100.00,ENE,67,2.0,5.0,80,0.00,,,0.00,8.000000,,2013-11-06 07:02:00,
2013-11-06 01:12:00,62.0,56.0,-100.00,ENE,67,2.0,5.0,80,0.00,,,0.00,8.000000,,2013-11-06 07:12:00,
2013-11-06 01:22:00,62.0,56.0,-100.00,ENE,67,2.0,5.0,80,0.00,,,0.00,8.000000,,2013-11-06 07:22:00,
2013-11-06 01:52:00,60.0,54.0,-100.00,NE,48,3.0,6.0,81,0.00,,,0.00,9.000000,,2013-11-06 07:52:00,
2013-11-06 02:02:00,60.0,54.0,-100.00,NE,48,3.0,6.0,81,0.00,,,0.00,9.000000,,2013-11-06 08:02:00,
2013-11-06 02:12:00,60.0,54.0,-100.00,NE,48,3.0,6.0,81,0.00,,,0.00,9.000000,,2013-11-06 08:12:00,
2013-11-06 02:22:00,60.0,54.0,-100.00,NE,48,3.0,6.0,81,0.00,,,0.00,9.000000,,2013-11-06 08:22:00,
2013-11-06 02:52:00,61.0,54.0,-100.00,East,81,4.0,9.0,78,0.00,,,0.00,8.000000,,2013-11-06 08:52:00,
2013-11-06 03:02:00,61.0,54.0,-100.00,East,81,4.0,9.0,78,0.00,,,0.00,8.000000,,2013-11-06 09:02:00,
2013-11-06 03:12:00,61.0,54.0,-100.00,East,81,4.0,9.0,78,0.00,,,0.00,8.000000,,2013-11-06 09:12:00,
2013-11-06 03:22:00,61.0,54.0,-100.00,East,81,4.0,9.0,78,0.00,,,0.00,8.000000,,2013-11-06 09:22:00,
2013-11-06 03:53:00,61.0,54.0,-100.00,ENE,77,3.0,8.0,77,0.00,,,0.00,11.000000,,2013-11-06 09:53:00,
2013-11-06 04:03:00,61.0,54.0,-100.00,ENE,77,3.0,8.0,77,0.00,,,0.00,11.000000,,2013-11-06 10:03:00,
2013-11-06 04:12:00,61.0,54.0,-100.00,ENE,77,3.0,8.0,77,0.00,,,0.00,11.000000,,2013-11-06 10:12:00,
2013-11-06 04:23:00,61.0,54.0,-100.00,ENE,77,3.0,8.0,77,0.00,,,0.00,11.000000,,2013-11-06 10:23:00,
2013-11-06 04:53:00,59.0,54.0,-100.00,NE,41,1.0,5.0,83,0.00,,,0.00,11.000000,,2013-11-06 10:53:00,
2013-11-06 05:02:00,59.0,54.0,-100.00,NE,41,1.0,5.0,83,0.00,,,0.00,11.000000,,2013-11-06 11:02:00,
2013-11-06 05:12:00,59.0,54.0,-100.00,NE,41,1.0,5.0,83,0.00,,,0.00,11.000000,,2013-11-06 11:12:00,
2013-11-06 05:22:00,59.0,54.0,-100.00,NE,41,1.0,5.0,83,0.00,,,0.00,11.000000,,2013-11-06 11:22:00,
2013-11-06 05:52:00,59.0,55.0,-100.00,ENE,59,2.0,5.0,87,0.00,,,0.00,10.000000,,2013-11-06 11:52:00,
2013-11-06 06:02:00,59.0,55.0,-100.00,ENE,59,2.0,5.0,87,0.00,,,0.00,10.000000,,2013-11-06 12:02:00,
2013-11-06 06:12:00,59.0,55.0,-100.00,ENE,59,2.0,5.0,87,0.00,,,0.00,10.000000,,2013-11-06 12:12:00,
2013-11-06 06:22:00,59.0,55.0,-100.00,ENE,59,2.0,5.0,87,0.00,,,0.00,10.000000,,2013-11-06 12:22:00,
2013-11-06 06:52:00,59.0,55.0,-100.00,ENE,73,3.0,7.0,87,0.00,,,0.00,11.000000,,2013-11-06 12:52:00,
2013-11-06 07:02:00,59.0,55.0,-100.00,ENE,73,3.0,7.0,87,0.00,,,0.00,11.000000,,2013-11-06 13:02:00,
2013-11-06 07:12:00,59.0,55.0,-100.00,ENE,73,3.0,7.0,87,0.00,,,0.00,11.000000,,2013-11-06 13:12:00,
2013-11-06 07:22:00,59.0,55.0,-100.00,ENE,73,3.0,7.0,87,0.00,,,0.00,11.000000,,2013-11-06 13:22:00,
2013-11-06 07:52:00,63.0,58.0,-100.00,East,93,4.0,9.0,84,0.00,,,0.00,58.000000,,2013-11-06 13:52:00,
2013-11-06 08:02:00,63.0,58.0,-100.00,East,93,4.0,9.0,84,0.00,,,0.00,58.000000,,2013-11-06 14:02:00,
2013-11-06 08:11:00,63.0,58.0,-100.00,East,93,4.0,9.0,84,0.00,,,0.00,58.000000,,2013-11-06 14:11:00,
2013-11-06 08:22:00,63.0,58.0,-100.00,East,93,4.0,9.0,84,0.00,,,0.00,58.000000,,2013-11-06 14:22:00,
2013-11-06 08:52:00,69.0,61.0,-100.00,ESE,108,5.0,13.0,77,0.00,,,0.00,257.000000,,2013-11-06 14:52:00,
2013-11-06 09:02:00,69.0,61.0,-100.00,ESE,108,5.0,13.0,77,0.00,,,0.00,257.000000,,2013-11-06 15:02:00,
2013-11-06 09:11:00,69.0,61.0,-100.00,ESE,108,5.0,13.0,77,0.00,,,0.00,257.000000,,2013-11-06 15:11:00,
2013-11-06 09:22:00,69.0,61.0,-100.00,ESE,108,5.0,13.0,77,0.00,,,0.00,257.000000,,2013-11-06 15:22:00,
2013-11-06 10:23:00,74.0,65.0,-100.00,East,101,5.0,12.0,74,0.00,,,0.00,399.000000,,2013-11-06 16:23:00,
2013-11-06 11:13:00,77.0,66.0,-100.00,ESE,119,10.0,20.0,70,0.00,,,0.00,690.000000,,2013-11-06 17:13:00,
2013-11-06 11:23:00,77.0,66.0,-100.00,ESE,119,10.0,20.0,70,0.00,,,0.00,690.000000,,2013-11-06 17:23:00,
2013-11-06 11:52:00,77.0,68.0,-100.00,ESE,122,8.0,21.0,73,0.00,,,0.00,706.000000,,2013-11-06 17:52:00,
2013-11-06 12:02:00,77.0,68.0,-100.00,ESE,122,8.0,21.0,73,0.00,,,0.00,706.000000,,2013-11-06 18:02:00,
2013-11-06 12:12:00,77.0,68.0,-100.00,ESE,122,8.0,21.0,73,0.00,,,0.00,706.000000,,2013-11-06 18:12:00,
2013-11-06 12:22:00,77.0,68.0,-100.00,ESE,122,8.0,21.0,73,0.00,,,0.00,706.000000,,2013-11-06 18:22:00,
2013-11-06 12:52:00,78.0,68.0,-100.00,SE,125,8.0,17.0,72,0.00,,,0.00,578.000000,,2013-11-06 18:52:00,
2013-11-06 13:01:00,78.0,68.0,-100.00,SE,125,8.0,17.0,72,0.00,,,0.00,578.000000,,2013-11-06 19:01:00,
2013-11-06 13:11:00,78.0,68.0,-100.00,SE,125,8.0,17.0,72,0.00,,,0.00,578.000000,,2013-11-06 19:11:00,
2013-11-06 13:22:00,78.0,68.0,-100.00,SE,125,8.0,17.0,72,0.00,,,0.00,578.000000,,2013-11-06 19:22:00,
2013-11-06 13:52:00,77.0,68.0,-100.00,SE,127,7.0,17.0,73,0.00,,,0.00,615.000000,,2013-11-06 19:52:00,
2013-11-06 14:02:00,77.0,68.0,-100.00,SE,127,7.0,17.0,73,0.00,,,0.00,615.000000,,2013-11-06 20:02:00,
2013-11-06 14:12:00,77.0,68.0,-100.00,SE,127,7.0,17.0,73,0.00,,,0.00,615.000000,,2013-11-06 20:12:00,
2013-11-06 14:22:00,77.0,68.0,-100.00,SE,127,7.0,17.0,73,0.00,,,0.00,615.000000,,2013-11-06 20:22:00,
2013-11-06 14:52:00,78.0,69.0,-100.00,ESE,123,8.0,18.0,73,0.00,,,0.00,427.000000,,2013-11-06 20:52:00,
2013-11-06 15:02:00,78.0,69.0,-100.00,ESE,123,8.0,18.0,73,0.00,,,0.00,427.000000,,2013-11-06 21:02:00,
2013-11-06 15:12:00,78.0,69.0,-100.00,ESE,123,8.0,18.0,73,0.00,,,0.00,427.000000,,2013-11-06 21:12:00,
2013-11-06 15:22:00,78.0,69.0,-100.00,ESE,123,8.0,18.0,73,0.00,,,0.00,427.000000,,2013-11-06 21:22:00,
2013-11-06 15:54:00,76.0,67.0,-100.00,SE,130,9.0,18.0,74,0.00,,,0.00,414.000000,,2013-11-06 21:54:00,
2013-11-06 16:04:00,76.0,67.0,-100.00,SE,130,9.0,18.0,74,0.00,,,0.00,414.000000,,2013-11-06 22:04:00,
2013-11-06 16:14:00,76.0,67.0,-100.00,SE,130,9.0,18.0,74,0.00,,,0.00,414.000000,,2013-11-06 22:14:00,
2013-11-06 16:23:00,76.0,67.0,-100.00,SE,130,9.0,18.0,74,0.00,,,0.00,414.000000,,2013-11-06 22:23:00,
2013-11-06 16:53:00,73.0,68.0,-100.00,SE,129,4.0,13.0,84,0.00,,,0.00,73.000000,,2013-11-06 22:53:00,
2013-11-06 17:02:00,73.0,68.0,-100.00,SE,129,4.0,13.0,84,0.00,,,0.00,73.000000,,2013-11-06 23:02:00,
2013-11-06 17:13:00,73.0,68.0,-100.00,SE,129,4.0,13.0,84,0.00,,,0.00,73.000000,,2013-11-06 23:13:00,
2013-11-06 17:22:00,73.0,68.0,-100.00,SE,129,4.0,13.0,84,0.00,,,0.00,73.000000,,2013-11-06 23:22:00,
2013-11-06 17:53:00,72.0,68.0,-100.00,ESE,112,3.0,8.0,86,0.00,,,0.00,14.000000,,2013-11-06 23:53:00,
2013-11-06 18:02:00,72.0,68.0,-100.00,ESE,112,3.0,8.0,86,0.00,,,0.00,14.000000,,2013-11-07 00:02:00,
2013-11-06 18:12:00,72.0,68.0,-100.00,ESE,112,3.0,8.0,86,0.00,,,0.00,14.000000,,2013-11-07 00:12:00,
2013-11-06 18:22:00,72.0,68.0,-100.00,ESE,112,3.0,8.0,86,0.00,,,0.00,14.000000,,2013-11-07 00:22:00,
2013-11-06 18:52:00,71.0,67.0,-100.00,ESE,106,3.0,7.0,87,0.00,,,0.00,9.000000,,2013-11-07 00:52:00,
2013-11-06 19:02:00,71.0,67.0,-100.00,ESE,106,3.0,7.0,87,0.00,,,0.00,9.000000,,2013-11-07 01:02:00,
2013-11-06 19:11:00,71.0,67.0,-100.00,ESE,106,3.0,7.0,87,0.00,,,0.00,9.000000,,2013-11-07 01:11:00,
2013-11-06 19:22:00,71.0,67.0,-100.00,ESE,106,3.0,7.0,87,0.00,,,0.00,9.000000,,2013-11-07 01:22:00,
2013-11-06 19:52:00,70.0,66.0,-100.00,ESE,102,3.0,6.0,88,0.00,,,0.00,9.000000,,2013-11-07 01:52:00,
2013-11-06 20:01:00,70.0,66.0,-100.00,ESE,102,3.0,6.0,88,0.00,,,0.00,9.000000,,2013-11-07 02:01:00,
2013-11-06 20:12:00,70.0,66.0,-100.00,ESE,102,3.0,6.0,88,0.00,,,0.00,9.000000,,2013-11-07 02:12:00,
2013-11-06 20:22:00,70.0,66.0,-100.00,ESE,102,3.0,6.0,88,0.00,,,0.00,9.000000,,2013-11-07 02:22:00,
2013-11-06 21:12:00,70.0,67.0,-100.00,East,99,2.0,7.0,89,0.00,,,0.00,10.000000,,2013-11-07 03:12:00,
2013-11-06 21:21:00,70.0,67.0,-100.00,East,99,2.0,7.0,89,0.00,,,0.00,10.000000,,2013-11-07 03:21:00,
2013-11-06 21:55:00,69.0,66.0,-100.00,ESE,119,3.0,6.0,89,0.00,,,0.00,10.000000,,2013-11-07 03:55:00,
2013-11-06 22:04:00,69.0,66.0,-100.00,ESE,119,3.0,6.0,89,0.00,,,0.00,10.000000,,2013-11-07 04:04:00,
2013-11-06 22:13:00,69.0,66.0,-100.00,ESE,119,3.0,6.0,89,0.00,,,0.00,10.000000,,2013-11-07 04:13:00,
2013-11-06 22:24:00,69.0,66.0,-100.00,ESE,119,3.0,6.0,89,0.00,,,0.00,10.000000,,2013-11-07 04:24:00,
2013-11-06 22:53:00,69.0,66.0,-100.00,ESE,121,3.0,5.0,91,0.00,,,0.00,10.000000,,2013-11-07 04:53:00,
2013-11-06 23:03:00,69.0,66.0,-100.00,ESE,121,3.0,5.0,91,0.00,,,0.00,10.000000,,2013-11-07 05:03:00,
2013-11-06 23:13:00,69.0,66.0,-100.00,ESE,121,3.0,5.0,91,0.00,,,0.00,10.000000,,2013-11-07 05:13:00,
2013-11-06 23:23:00,69.0,66.0,-100.00,ESE,121,3.0,5.0,91,0.00,,,0.00,10.000000,,2013-11-07 05:23:00,
2013-11-06 23:54:00,70.0,67.0,-100.00,SE,132,4.0,8.0,91,0.00,,,0.00,11.000000,,2013-11-07 05:54:00,